createdAt,value
2022-12-31T00:00:23.047Z,614.50
2022-12-31T00:02:56.560Z,322.65
2022-12-31T00:05:26.624Z,571.67
2022-12-31T00:07:56.721Z,460.60
2022-12-31T00:10:27.199Z,428.40
2022-12-31T00:12:57.281Z,413.80
2022-12-31T00:15:28.420Z,534.65
2022-12-31T00:18:01.670Z,497.23
2022-12-31T00:20:31.923Z,639.75
2022-12-31T00:23:02.354Z,561.55
2022-12-31T00:25:32.552Z,516.28
2022-12-31T00:28:02.550Z,753.25
2022-12-31T00:30:32.838Z,434.17
2022-12-31T00:33:05.603Z,524.22
2022-12-31T00:35:36.592Z,340.77
2022-12-31T00:38:06.935Z,354.25
2022-12-31T00:40:37.216Z,296.85
2022-12-31T00:43:07.409Z,444.88
2022-12-31T00:45:38.452Z,423.38
2022-12-31T00:48:11.642Z,275.80
2022-12-31T00:50:41.815Z,445.58
2022-12-31T00:53:12.130Z,276.92
2022-12-31T00:55:42.484Z,366.48
2022-12-31T00:58:12.918Z,313.17
2022-12-31T01:00:43.956Z,266.23
2022-12-31T01:03:16.892Z,387.23
2022-12-31T01:05:47.173Z,309.60
2022-12-31T01:08:17.457Z,430.45
2022-12-31T01:11:04.246Z,319.10
2022-12-31T01:13:34.646Z,350.42
2022-12-31T01:16:10.649Z,321.15
2022-12-31T01:18:44.053Z,237.60
2022-12-31T01:21:15.858Z,246.00
2022-12-31T01:23:46.061Z,214.93
2022-12-31T01:26:19.053Z,275.70
2022-12-31T01:28:50.098Z,222.90
2022-12-31T01:31:22.856Z,216.57
2022-12-31T01:33:56.761Z,244.77
2022-12-31T01:36:28.945Z,230.43
2022-12-31T01:39:00.601Z,228.60
2022-12-31T01:41:33.298Z,236.98
2022-12-31T01:44:05.415Z,227.95
2022-12-31T01:46:40.272Z,236.13
2022-12-31T01:49:19.674Z,220.00
2022-12-31T01:51:59.878Z,243.13
2022-12-31T01:54:32.620Z,253.90
2022-12-31T01:57:03.886Z,226.20
2022-12-31T01:59:36.077Z,220.10
2022-12-31T02:02:07.952Z,215.57
2022-12-31T02:04:40.828Z,224.60
2022-12-31T02:07:12.264Z,232.38
2022-12-31T02:09:44.924Z,244.50
2022-12-31T02:12:15.416Z,227.32
2022-12-31T02:14:48.709Z,238.68
2022-12-31T02:17:28.824Z,232.65
2022-12-31T02:20:19.481Z,237.27
2022-12-31T02:23:13.472Z,235.52
2022-12-31T02:26:05.805Z,233.65
2022-12-31T02:28:59.079Z,218.05
2022-12-31T02:31:37.950Z,252.77
2022-12-31T02:34:12.693Z,269.88
2022-12-31T02:36:48.138Z,259.23
2022-12-31T02:39:18.934Z,273.10
2022-12-31T02:41:54.059Z,257.73
2022-12-31T02:44:26.532Z,331.92
2022-12-31T02:47:20.967Z,387.88
2022-12-31T02:52:36.502Z,739.03
2022-12-31T02:55:14.161Z,351.23
2022-12-31T02:57:50.825Z,785.47
2022-12-31T03:00:34.057Z,470.40
2022-12-31T03:03:09.564Z,507.97
2022-12-31T03:05:43.783Z,855.72
2022-12-31T03:08:14.305Z,647.45
2022-12-31T03:10:44.555Z,805.72
2022-12-31T03:13:11.956Z,1197.95
2022-12-31T03:15:43.177Z,1239.97
2022-12-31T03:18:18.583Z,1446.25
2022-12-31T03:21:12.059Z,1355.40
2022-12-31T03:23:50.332Z,1102.15
2022-12-31T03:26:17.802Z,1259.25
2022-12-31T03:28:48.182Z,908.55
2022-12-31T03:31:19.026Z,968.75
2022-12-31T03:33:52.223Z,1259.13
2022-12-31T03:36:22.557Z,1041.15
2022-12-31T03:38:53.048Z,1124.88
2022-12-31T03:41:23.762Z,884.60
2022-12-31T03:43:54.039Z,727.20
2022-12-31T03:46:24.377Z,857.65
2022-12-31T03:48:57.261Z,677.30
2022-12-31T03:51:27.475Z,1019.60
2022-12-31T03:53:57.662Z,1197.82
2022-12-31T03:56:27.832Z,1511.80
2022-12-31T03:58:58.080Z,975.90
2022-12-31T04:01:28.242Z,783.53
2022-12-31T04:04:01.300Z,1167.80
2022-12-31T04:06:31.471Z,708.23
2022-12-31T04:09:01.741Z,1097.55
2022-12-31T04:11:31.799Z,624.08
2022-12-31T04:14:02.104Z,674.55
2022-12-31T04:16:32.425Z,652.25
2022-12-31T04:19:05.659Z,684.00
2022-12-31T04:21:35.861Z,861.67
2022-12-31T04:24:06.766Z,1167.18
2022-12-31T04:26:37.774Z,538.17
2022-12-31T04:29:08.626Z,820.17
2022-12-31T04:31:38.920Z,594.67
2022-12-31T04:34:12.167Z,562.47
2022-12-31T04:36:42.638Z,621.72
2022-12-31T04:39:13.009Z,509.55
2022-12-31T04:41:43.136Z,749.53
2022-12-31T04:44:13.503Z,547.33
2022-12-31T04:46:43.755Z,534.92
2022-12-31T04:49:16.440Z,452.70
2022-12-31T04:51:46.728Z,325.55
2022-12-31T04:54:17.278Z,494.52
2022-12-31T04:56:47.844Z,448.90
2022-12-31T04:59:18.309Z,417.90
2022-12-31T05:01:49.115Z,307.55
2022-12-31T05:04:22.480Z,279.95
2022-12-31T05:06:52.526Z,199.35
2022-12-31T05:09:24.246Z,149.63
2022-12-31T05:11:54.457Z,241.95
2022-12-31T05:14:24.805Z,221.98
2022-12-31T05:16:55.453Z,191.27
2022-12-31T05:19:28.638Z,325.50
2022-12-31T05:22:11.038Z,391.92
2022-12-31T05:24:41.347Z,348.90
2022-12-31T05:27:11.498Z,357.20
2022-12-31T05:29:41.861Z,481.23
2022-12-31T05:32:11.935Z,404.60
2022-12-31T05:34:44.787Z,311.17
2022-12-31T05:37:15.380Z,228.23
2022-12-31T05:39:45.592Z,150.18
2022-12-31T05:42:15.697Z,148.57
2022-12-31T05:44:46.148Z,156.63
2022-12-31T05:47:16.930Z,432.90
2022-12-31T05:49:49.609Z,196.35
2022-12-31T05:52:20.043Z,250.43
2022-12-31T05:54:50.308Z,280.27
2022-12-31T05:57:20.634Z,189.07
2022-12-31T05:59:53.598Z,216.05
2022-12-31T06:02:24.731Z,143.10
2022-12-31T06:04:57.457Z,155.43
2022-12-31T06:07:27.772Z,234.32
2022-12-31T06:09:57.981Z,261.17
2022-12-31T06:12:28.330Z,260.85
2022-12-31T06:14:58.557Z,250.18
2022-12-31T06:17:29.442Z,307.20
2022-12-31T06:20:07.349Z,283.95
2022-12-31T06:22:40.665Z,213.05
2022-12-31T06:25:11.856Z,277.63
2022-12-31T06:27:42.257Z,233.10
2022-12-31T06:30:14.617Z,356.90
2022-12-31T06:32:44.976Z,368.45
2022-12-31T06:35:18.050Z,378.35
2022-12-31T06:37:48.339Z,382.85
2022-12-31T06:40:18.597Z,356.73
2022-12-31T06:42:49.870Z,458.92
2022-12-31T06:45:23.110Z,227.55
2022-12-31T06:47:53.567Z,421.83
2022-12-31T06:50:28.230Z,438.95
2022-12-31T06:52:58.298Z,381.27
2022-12-31T06:55:29.773Z,431.90
2022-12-31T06:58:00.938Z,477.70
2022-12-31T07:00:32.604Z,398.92
2022-12-31T07:03:26.555Z,431.40
2022-12-31T07:06:05.209Z,436.55
2022-12-31T07:08:46.743Z,375.48
2022-12-31T07:11:23.775Z,302.50
2022-12-31T07:14:11.802Z,539.45
2022-12-31T07:16:57.678Z,321.80
2022-12-31T07:19:39.009Z,297.30
2022-12-31T07:22:16.836Z,268.50
2022-12-31T07:24:48.591Z,230.80
2022-12-31T07:27:35.745Z,312.75
2022-12-31T07:30:10.155Z,414.77
2022-12-31T07:33:14.648Z,204.98
2022-12-31T07:35:53.044Z,384.30
2022-12-31T07:38:34.628Z,233.73
2022-12-31T07:41:13.186Z,255.82
2022-12-31T07:43:52.154Z,406.38
2022-12-31T07:46:34.489Z,273.38
2022-12-31T07:49:07.983Z,296.73
2022-12-31T07:51:38.750Z,246.68
2022-12-31T07:54:14.189Z,238.63
2022-12-31T07:56:46.340Z,208.82
2022-12-31T07:59:30.797Z,188.85
2022-12-31T08:02:08.784Z,195.27
2022-12-31T08:04:46.395Z,185.65
2022-12-31T08:07:24.566Z,258.40
2022-12-31T08:10:13.995Z,222.75
2022-12-31T08:12:50.131Z,233.75
2022-12-31T08:15:30.065Z,309.98
2022-12-31T08:18:01.416Z,249.40
2022-12-31T08:20:34.847Z,217.50
2022-12-31T08:23:24.028Z,251.23
2022-12-31T08:26:10.701Z,260.55
2022-12-31T08:28:56.242Z,233.57
2022-12-31T08:31:33.528Z,265.98
2022-12-31T08:34:14.979Z,236.10
2022-12-31T08:36:51.853Z,260.83
2022-12-31T08:39:35.118Z,254.48
2022-12-31T08:42:16.687Z,274.93
2022-12-31T08:44:56.158Z,229.88
2022-12-31T08:47:38.443Z,242.50
2022-12-31T08:50:15.947Z,247.23
2022-12-31T08:52:46.708Z,244.15
2022-12-31T08:55:19.863Z,257.65
2022-12-31T08:58:01.638Z,265.38
2022-12-31T09:00:34.430Z,226.65
2022-12-31T09:03:23.115Z,237.00
2022-12-31T09:06:02.664Z,224.57
2022-12-31T09:08:41.473Z,238.90
2022-12-31T09:11:22.832Z,225.55
2022-12-31T09:14:32.307Z,243.07
2022-12-31T09:17:14.332Z,223.05
2022-12-31T09:19:44.857Z,231.07
2022-12-31T09:22:15.495Z,244.95
2022-12-31T09:24:46.453Z,250.93
2022-12-31T09:27:27.270Z,239.82
2022-12-31T09:30:04.759Z,243.90
2022-12-31T09:32:55.353Z,217.77
2022-12-31T09:35:40.538Z,172.25
2022-12-31T09:38:21.665Z,129.52
2022-12-31T09:41:03.339Z,122.68
2022-12-31T09:44:04.616Z,112.00
2022-12-31T09:47:10.106Z,100.50
2022-12-31T09:50:16.431Z,90.53
2022-12-31T09:53:00.885Z,85.80
2022-12-31T09:55:39.908Z,74.07
2022-12-31T09:58:26.166Z,63.90
2022-12-31T10:01:05.538Z,78.07
2022-12-31T10:03:55.324Z,57.38
2022-12-31T10:06:32.439Z,51.42
2022-12-31T10:09:16.879Z,52.50
2022-12-31T10:12:05.520Z,53.38
2022-12-31T10:14:55.713Z,50.92
2022-12-31T10:17:41.402Z,47.67
2022-12-31T10:20:41.568Z,55.90
2022-12-31T10:23:39.122Z,48.83
2022-12-31T10:26:30.820Z,48.30
2022-12-31T10:29:12.407Z,46.65
2022-12-31T10:31:49.221Z,53.08
2022-12-31T10:34:25.278Z,45.88
2022-12-31T10:36:58.770Z,45.22
2022-12-31T10:39:45.558Z,46.95
2022-12-31T10:42:53.516Z,45.55
2022-12-31T10:45:49.815Z,43.55
2022-12-31T10:48:54.070Z,41.63
2022-12-31T10:51:47.937Z,46.97
2022-12-31T10:54:48.153Z,49.05
2022-12-31T10:58:03.976Z,41.47
2022-12-31T11:00:42.063Z,43.83
2022-12-31T11:03:49.375Z,44.50
2022-12-31T11:06:54.828Z,42.90
2022-12-31T11:10:08.017Z,46.70
2022-12-31T11:13:19.601Z,47.85
2022-12-31T11:16:22.878Z,47.13
2022-12-31T11:19:02.333Z,63.80
2022-12-31T11:21:50.881Z,45.28
2022-12-31T11:24:34.181Z,45.08
2022-12-31T11:27:17.319Z,40.20
2022-12-31T11:30:04.761Z,50.53
2022-12-31T11:32:51.538Z,39.33
2022-12-31T11:35:31.152Z,37.63
2022-12-31T11:38:13.031Z,48.60
2022-12-31T11:40:48.341Z,45.63
2022-12-31T11:43:30.071Z,45.83
2022-12-31T11:46:15.766Z,60.38
2022-12-31T11:49:00.133Z,43.97
2022-12-31T11:51:54.702Z,40.13
2022-12-31T11:54:50.390Z,40.55
2022-12-31T11:57:29.000Z,39.40
2022-12-31T12:00:02.486Z,43.53
2022-12-31T12:02:47.593Z,41.25
2022-12-31T12:05:23.015Z,38.80
2022-12-31T12:07:54.314Z,36.40
2022-12-31T12:10:36.087Z,36.40
2022-12-31T12:13:15.619Z,39.00
2022-12-31T12:15:50.011Z,38.45
2022-12-31T12:18:32.980Z,37.95
2022-12-31T12:21:14.519Z,42.67
2022-12-31T12:23:45.295Z,42.95
2022-12-31T12:26:31.556Z,38.67
2022-12-31T12:29:04.105Z,31.83
2022-12-31T12:31:34.399Z,39.85
2022-12-31T12:34:04.822Z,40.72
2022-12-31T12:36:37.533Z,40.22
2022-12-31T12:39:09.467Z,40.33
2022-12-31T12:41:39.535Z,40.60
2022-12-31T12:44:18.643Z,38.17
2022-12-31T12:46:51.778Z,32.85
2022-12-31T12:49:26.506Z,39.13
2022-12-31T12:52:14.664Z,34.90
2022-12-31T12:55:01.101Z,39.65
2022-12-31T12:57:37.169Z,39.88
2022-12-31T13:00:16.635Z,36.30
2022-12-31T13:03:08.881Z,39.35
2022-12-31T13:05:50.213Z,31.48
2022-12-31T13:08:40.006Z,41.95
2022-12-31T13:11:26.341Z,32.30
2022-12-31T13:14:03.424Z,36.35
2022-12-31T13:16:42.883Z,26.67
2022-12-31T13:19:21.056Z,30.40
2022-12-31T13:21:57.604Z,32.05
2022-12-31T13:24:46.327Z,35.80
2022-12-31T13:27:24.208Z,36.90
2022-12-31T13:29:58.425Z,38.75
2022-12-31T13:32:38.379Z,34.30
2022-12-31T13:35:22.773Z,38.20
2022-12-31T13:38:00.266Z,39.42
2022-12-31T13:40:50.814Z,36.78
2022-12-31T13:43:30.421Z,36.10
2022-12-31T13:46:12.994Z,29.00
2022-12-31T13:48:51.708Z,30.42
2022-12-31T13:51:29.098Z,26.83
2022-12-31T13:54:05.099Z,29.15
2022-12-31T13:56:40.956Z,29.08
2022-12-31T13:59:19.650Z,29.80
2022-12-31T14:01:55.395Z,35.53
2022-12-31T14:04:33.354Z,27.63
2022-12-31T14:07:09.654Z,33.15
2022-12-31T14:09:40.136Z,31.48
2022-12-31T14:12:25.455Z,27.63
2022-12-31T14:15:05.659Z,33.42
2022-12-31T14:17:45.245Z,39.10
2022-12-31T14:20:26.836Z,31.17
2022-12-31T14:23:06.131Z,32.22
2022-12-31T14:25:40.889Z,27.58
2022-12-31T14:28:20.979Z,23.30
2022-12-31T14:30:56.268Z,26.13
2022-12-31T14:33:39.303Z,20.90
2022-12-31T14:36:38.915Z,21.60
2022-12-31T14:39:22.894Z,23.42
2022-12-31T14:44:48.875Z,18.35
2022-12-31T14:47:33.736Z,19.48
2022-12-31T14:50:10.005Z,19.00
2022-12-31T14:52:53.197Z,14.25
2022-12-31T14:55:28.447Z,13.63
2022-12-31T14:58:27.231Z,19.00
2022-12-31T15:00:59.890Z,16.20
2022-12-31T15:03:43.178Z,14.73
2022-12-31T15:06:38.397Z,16.63
2022-12-31T15:09:20.802Z,17.45
2022-12-31T15:12:05.944Z,18.75
2022-12-31T15:15:11.604Z,15.68
2022-12-31T15:17:56.968Z,12.32
2022-12-31T15:20:50.839Z,19.63
2022-12-31T15:23:25.663Z,18.80
2022-12-31T15:26:01.354Z,15.05
2022-12-31T15:28:38.355Z,18.70
2022-12-31T15:31:19.889Z,13.85
2022-12-31T15:34:02.576Z,14.50
2022-12-31T15:36:35.779Z,14.25
2022-12-31T15:39:27.349Z,19.85
2022-12-31T15:44:52.539Z,17.88
2022-12-31T15:47:30.720Z,20.02
2022-12-31T15:50:07.227Z,26.15
2022-12-31T15:52:45.059Z,15.30
2022-12-31T15:55:26.142Z,12.43
2022-12-31T15:58:00.348Z,14.98
2022-12-31T16:00:40.152Z,20.00
2022-12-31T16:03:23.313Z,24.23
2022-12-31T16:06:01.647Z,21.33
2022-12-31T16:08:34.473Z,19.13
2022-12-31T16:11:07.242Z,12.00
2022-12-31T16:13:39.816Z,12.85
2022-12-31T16:16:21.704Z,19.95
2022-12-31T16:18:53.255Z,15.57
2022-12-31T16:21:32.828Z,17.00
2022-12-31T16:24:04.849Z,15.23
2022-12-31T16:26:40.066Z,14.02
2022-12-31T16:29:10.728Z,14.32
2022-12-31T16:31:40.952Z,10.15
2022-12-31T16:34:16.903Z,16.42
2022-12-31T16:36:58.117Z,13.82
2022-12-31T16:39:34.366Z,14.80
2022-12-31T16:42:12.935Z,12.05
2022-12-31T16:44:43.623Z,13.95
2022-12-31T16:47:21.510Z,16.80
2022-12-31T16:50:00.142Z,15.88
2022-12-31T16:52:37.090Z,13.32
2022-12-31T16:55:11.360Z,14.82
2022-12-31T16:57:41.884Z,15.93
2022-12-31T17:00:20.980Z,21.45
2022-12-31T17:02:58.627Z,20.63
2022-12-31T17:05:29.983Z,16.17
2022-12-31T17:08:25.431Z,17.65
2022-12-31T17:10:56.596Z,15.18
2022-12-31T17:13:40.074Z,15.82
2022-12-31T17:16:10.637Z,21.67
2022-12-31T17:18:42.072Z,16.83
2022-12-31T17:21:13.603Z,16.65
2022-12-31T17:23:53.454Z,11.43
2022-12-31T17:26:28.616Z,14.85
2022-12-31T17:29:00.729Z,22.40
2022-12-31T17:31:39.194Z,12.77
2022-12-31T17:34:25.191Z,15.50
2022-12-31T17:37:03.294Z,17.85
2022-12-31T17:39:48.531Z,16.75
2022-12-31T17:42:29.529Z,21.05
2022-12-31T17:45:02.969Z,16.52
2022-12-31T17:47:38.614Z,13.45
2022-12-31T17:50:20.040Z,17.17
2022-12-31T17:52:50.551Z,14.95
2022-12-31T17:55:23.199Z,15.05
2022-12-31T17:57:56.596Z,18.77
2022-12-31T18:00:29.351Z,16.98
2022-12-31T18:02:59.532Z,20.30
2022-12-31T18:05:30.031Z,21.00
2022-12-31T18:08:00.343Z,21.13
2022-12-31T18:10:37.666Z,16.25
2022-12-31T18:13:08.709Z,11.63
2022-12-31T18:15:39.048Z,20.42
2022-12-31T18:18:24.876Z,17.08
2022-12-31T18:20:57.557Z,20.52
2022-12-31T18:23:31.292Z,13.85
2022-12-31T18:26:04.193Z,23.60
2022-12-31T18:28:34.288Z,16.20
2022-12-31T18:31:04.892Z,20.13
2022-12-31T18:33:36.850Z,17.17
2022-12-31T18:36:09.867Z,14.75
2022-12-31T18:38:40.437Z,12.10
2022-12-31T18:41:19.978Z,15.52
2022-12-31T18:43:50.927Z,13.57
2022-12-31T18:46:23.555Z,14.77
2022-12-31T18:48:53.628Z,13.27
2022-12-31T18:51:31.764Z,15.32
2022-12-31T18:54:02.436Z,15.05
2022-12-31T18:56:35.129Z,15.20
2022-12-31T18:59:05.600Z,17.77
2022-12-31T19:01:38.353Z,14.70
2022-12-31T19:04:19.928Z,16.77
2022-12-31T19:06:53.269Z,20.48
2022-12-31T19:12:17.683Z,20.85
2022-12-31T19:14:47.799Z,15.25
2022-12-31T19:17:17.876Z,16.58
2022-12-31T19:19:48.112Z,19.02
2022-12-31T19:22:18.740Z,12.68
2022-12-31T19:24:48.820Z,19.90
2022-12-31T19:27:21.471Z,15.65
2022-12-31T19:29:52.042Z,18.98
2022-12-31T19:32:22.048Z,14.70
2022-12-31T19:34:52.185Z,20.27
2022-12-31T19:37:22.242Z,13.48
2022-12-31T19:39:52.322Z,22.58
2022-12-31T19:42:25.793Z,12.70
2022-12-31T19:44:56.026Z,20.83
2022-12-31T19:47:26.063Z,18.02
2022-12-31T19:49:56.068Z,20.42
2022-12-31T19:52:26.325Z,13.77
2022-12-31T19:54:56.557Z,15.98
2022-12-31T19:57:29.230Z,12.55
2022-12-31T19:59:59.394Z,17.38
2022-12-31T20:02:29.555Z,13.55
2022-12-31T20:04:59.840Z,12.98
2022-12-31T20:07:29.931Z,13.38
2022-12-31T20:10:00.188Z,18.27
2022-12-31T20:12:35.654Z,13.15
2022-12-31T20:15:09.297Z,14.27
2022-12-31T20:17:39.930Z,21.75
2022-12-31T20:20:11.244Z,18.20
2022-12-31T20:22:41.389Z,19.90
2022-12-31T20:25:12.458Z,17.50
2022-12-31T20:27:45.471Z,16.83
2022-12-31T20:30:17.397Z,17.23
2022-12-31T20:32:47.449Z,22.60
2022-12-31T20:35:17.652Z,13.80
2022-12-31T20:37:47.770Z,24.63
2022-12-31T20:40:17.998Z,21.60
2022-12-31T20:42:50.772Z,19.10
2022-12-31T20:45:21.309Z,19.30
2022-12-31T20:47:51.401Z,14.32
2022-12-31T20:50:21.514Z,14.38
2022-12-31T20:52:52.259Z,19.33
2022-12-31T20:55:22.341Z,18.83
2022-12-31T20:57:56.094Z,16.98
2022-12-31T21:00:26.821Z,14.20
2022-12-31T21:03:08.065Z,19.75
2022-12-31T21:05:41.117Z,14.25
2022-12-31T21:08:11.227Z,17.38
2022-12-31T21:10:41.602Z,16.73
2022-12-31T21:13:11.627Z,14.95
2022-12-31T21:15:42.086Z,15.45
2022-12-31T21:18:12.196Z,15.30
2022-12-31T21:20:42.292Z,22.30
2022-12-31T21:23:12.351Z,13.48
2022-12-31T21:25:42.396Z,14.88
2022-12-31T21:28:15.993Z,18.58
2022-12-31T21:30:46.719Z,24.70
2022-12-31T21:33:17.084Z,19.98
2022-12-31T21:35:53.550Z,19.55
2022-12-31T21:38:24.348Z,19.00
2022-12-31T21:40:54.797Z,13.07
2022-12-31T21:43:27.809Z,17.38
2022-12-31T21:46:03.592Z,23.20
2022-12-31T21:48:34.182Z,12.82
2022-12-31T21:51:10.353Z,12.75
2022-12-31T21:53:40.640Z,13.93
2022-12-31T21:56:12.020Z,16.27
2022-12-31T21:58:46.865Z,9.48
2022-12-31T22:01:35.528Z,9.30
2022-12-31T22:04:07.946Z,11.90
2022-12-31T22:06:43.011Z,11.85
2022-12-31T22:09:13.086Z,11.45
2022-12-31T22:11:43.360Z,19.80
2022-12-31T22:14:16.277Z,13.20
2022-12-31T22:16:46.354Z,16.30
2022-12-31T22:19:16.419Z,11.15
2022-12-31T22:21:46.463Z,12.38
2022-12-31T22:24:16.672Z,14.52
2022-12-31T22:26:47.302Z,11.77
2022-12-31T22:29:21.678Z,10.00
2022-12-31T22:31:54.519Z,11.52
2022-12-31T22:34:28.167Z,14.95
2022-12-31T22:36:58.855Z,7.43
2022-12-31T22:39:44.545Z,10.73
2022-12-31T22:42:15.306Z,10.07
2022-12-31T22:44:48.211Z,10.52
2022-12-31T22:47:18.238Z,10.27
2022-12-31T22:49:48.252Z,7.53
2022-12-31T22:52:18.658Z,11.63
2022-12-31T22:54:48.712Z,18.50
2022-12-31T22:57:20.370Z,12.38
2022-12-31T22:59:53.664Z,8.10
2022-12-31T23:02:23.710Z,13.13
2022-12-31T23:04:53.751Z,7.90
2022-12-31T23:07:43.951Z,11.40
2022-12-31T23:10:26.680Z,13.93
2022-12-31T23:12:56.930Z,13.15
2022-12-31T23:15:42.208Z,17.13
2022-12-31T23:18:24.690Z,6.15
2022-12-31T23:21:07.085Z,7.07
2022-12-31T23:23:37.342Z,7.18
2022-12-31T23:26:07.693Z,17.20
2022-12-31T23:28:37.697Z,9.25
2022-12-31T23:31:11.634Z,6.53
2022-12-31T23:33:41.839Z,9.20
2022-12-31T23:36:14.257Z,11.70
2022-12-31T23:38:44.637Z,8.77
2022-12-31T23:41:15.515Z,8.13
2022-12-31T23:43:45.623Z,10.32
2022-12-31T23:46:21.610Z,14.90
2022-12-31T23:48:51.991Z,18.73
2022-12-31T23:51:21.968Z,8.68
2022-12-31T23:53:52.275Z,10.95
2022-12-31T23:56:24.378Z,9.25
2022-12-31T23:58:57.173Z,8.95
